Weather Display Live

LIVE WEATHER, Rathlin Island , Northern Ireland , UK.
- Weather Data Uploaded via a WMR200 Weather Station -
-
Live Data More Data Mobile Radar AIS Tides Forecast Community Facebook

LocaL Tide Prediction

This page is updated from recent data collected by a DAVIS VANTAGE PRO weather station Use the Reload or Refresh facility on your browser to retrieve the latest data.



Weather report/warning/Metars

Eglinton / Londonderr, United Kingdom (EGAE) 55-03N 007-09W
May 15, 2021 - 07:20 AM EDT / 2021.05.15 1120 UTC
Wind: from the ESE (110 degrees) at 14 MPH (12 KT):0
Visibility: 5 mile(s):0
Sky conditions: mostly cloudy
Weather: light rain showers
Temperature: 53 F (12 C)
Dew Point: 46 F (8 C)
Relative Humidity: 76%
Pressure (altimeter): 29.44 in. Hg (0997 hPa)
ob: EGAE 151120Z 11012KT 9000 -SHRA FEW022 BKN029 12/08 Q0997
cycle: 11



Use the RELOAD facility on your browser to retrieve the latest data.

Click here for a daily update of the averages/extremes to date for the month
Created by "Weather Display" software version 10.37S at this start time/date 06:40:32 14/05/2021